Terminal Aerodrome Forecast
Issued by NWS

Home | Current Version | Previous Version | Text Only | Print | Product List | Glossary On
Versions: 1 2 3 4 5 6 7 8 9 10 11 12 13 14 15 16 17 18 19 20 21 22 23 24 25
158
FTUS43 KGRR 281140
TAFBTL
TAF
KBTL 281140Z 2812/2912 02007KT P6SM OVC008
     FM281700 35005KT 6SM BR OVC015
     FM281900 35007KT P6SM OVC035
     FM290000 02004KT P6SM SKC=

USA.gov is the U.S. government's official web portal to all federal, state and local government web resources and services.